Time;durP1;ratioP1;P1;durP2;ratioP2;P2;SDS_P1;SDS_P2;PMS_P1;PMS_P2;Temp;Humidity;BMP_temperature;BMP_pressure;BME280_temperature;BME280_humidity;BME280_pressure;Samples;Min_cycle;Max_cycle;Signal;HPM_P1;HPM_P2
2022/05/14 00:01:44;;;;;;;4.93;2.60;;;12.50;99.90;;;;;;5018905;28;20458;-86
2022/05/14 00:04:11;;;;;;;3.57;3.13;;;12.50;99.90;;;;;;5019350;28;20532;-86
2022/05/14 00:06:43;;;;;;;1.63;1.53;;;12.40;99.90;;;;;;5019876;28;20454;-86
2022/05/14 00:09:10;;;;;;;4.33;2.80;;;12.40;99.90;;;;;;5018653;28;20494;-86
2022/05/14 00:14:25;;;;;;;2.30;1.87;;;12.50;99.90;;;;;;5024392;28;20449;-86
2022/05/14 00:16:52;;;;;;;2.13;2.03;;;12.50;99.90;;;;;;5025383;28;20446;-86
2022/05/14 00:19:19;;;;;;;6.30;3.70;;;12.60;99.90;;;;;;5024831;28;20473;-86
2022/05/14 00:21:46;;;;;;;5.10;4.60;;;12.60;99.90;;;;;;5024500;28;20502;-87
2022/05/14 00:24:17;;;;;;;3.67;3.27;;;12.40;99.90;;;;;;5025404;28;20457;-86
2022/05/14 00:26:44;;;;;;;5.30;3.33;;;12.30;99.90;;;;;;5024569;28;20442;-86
2022/05/14 00:29:13;;;;;;;5.80;5.17;;;12.40;99.90;;;;;;5024887;28;20543;-85
2022/05/14 00:31:41;;;;;;;3.77;3.37;;;12.50;99.90;;;;;;5024655;28;20490;-86
2022/05/14 00:34:08;;;;;;;5.43;3.67;;;12.50;99.90;;;;;;5024058;28;20461;-86
2022/05/14 00:36:35;;;;;;;4.07;3.77;;;12.50;99.90;;;;;;5024636;28;20455;-86
2022/05/14 00:39:04;;;;;;;4.57;4.17;;;12.50;99.90;;;;;;5024656;28;20503;-86
2022/05/14 00:41:36;;;;;;;4.60;4.20;;;12.50;99.90;;;;;;5023985;28;20532;-86
2022/05/14 00:44:04;;;;;;;3.20;3.00;;;12.50;99.90;;;;;;5024436;28;20457;-86
2022/05/14 00:46:44;;;;;;;3.17;2.97;;;12.50;99.90;;;;;;5024301;28;20930;-86
2022/05/14 00:49:12;;;;;;;3.40;3.10;;;12.40;99.90;;;;;;5024158;28;20485;-86
2022/05/14 00:51:42;;;;;;;2.60;2.40;;;12.40;99.90;;;;;;5023174;28;20452;-86
2022/05/14 00:54:12;;;;;;;2.77;2.30;;;12.40;99.90;;;;;;5024408;28;20918;-86
2022/05/14 00:56:43;;;;;;;3.83;3.07;;;12.40;99.90;;;;;;5024246;28;20485;-86
2022/05/14 00:59:13;;;;;;;4.20;3.23;;;12.40;99.90;;;;;;5023588;28;20932;-86
2022/05/14 01:01:42;;;;;;;4.23;2.77;;;12.30;99.90;;;;;;5030778;28;20525;-86
2022/05/14 01:04:10;;;;;;;3.43;3.13;;;12.30;99.90;;;;;;5036220;28;20466;-84
2022/05/14 01:06:39;;;;;;;4.67;2.60;;;12.30;99.90;;;;;;5036483;28;20449;-85
2022/05/14 01:09:11;;;;;;;3.20;2.83;;;12.30;99.90;;;;;;5036291;28;20492;-84
2022/05/14 01:11:43;;;;;;;5.97;3.80;;;12.30;99.90;;;;;;5035278;28;20450;-84
2022/05/14 01:14:10;;;;;;;3.53;3.33;;;12.30;99.90;;;;;;5036137;28;20969;-84
2022/05/14 01:16:40;;;;;;;3.70;3.40;;;12.20;99.90;;;;;;5035826;28;20438;-84
2022/05/14 01:19:10;;;;;;;3.70;3.40;;;12.10;99.90;;;;;;5036342;28;20489;-85
2022/05/14 01:21:48;;;;;;;5.43;3.70;;;12.00;99.90;;;;;;5036178;28;20438;-84
2022/05/14 01:27:09;;;;;;;3.20;3.00;;;12.00;99.90;;;;;;5036515;28;20436;-86
2022/05/14 01:29:37;;;;;;;5.30;3.27;;;12.00;99.90;;;;;;5036134;28;20501;-85
2022/05/14 01:32:05;;;;;;;2.97;2.77;;;12.00;99.90;;;;;;5035799;28;20465;-85
2022/05/14 01:34:33;;;;;;;4.03;3.60;;;11.90;99.90;;;;;;5036001;28;20738;-84
2022/05/14 01:37:01;;;;;;;3.20;3.00;;;11.90;99.90;;;;;;5035897;28;20475;-85
2022/05/14 01:39:28;;;;;;;3.60;3.30;;;11.90;99.90;;;;;;5035412;28;20469;-85
2022/05/14 01:41:56;;;;;;;5.83;4.10;;;11.90;99.90;;;;;;5035744;28;20441;-86
2022/05/14 01:44:24;;;;;;;3.73;2.77;;;11.90;99.90;;;;;;5035947;28;20513;-84
2022/05/14 01:46:51;;;;;;;4.00;3.33;;;11.90;99.90;;;;;;5035613;28;20437;-84
2022/05/14 01:49:18;;;;;;;3.33;3.10;;;11.80;99.90;;;;;;5035238;28;20556;-85
2022/05/14 01:51:45;;;;;;;5.07;3.20;;;11.80;99.90;;;;;;5035550;28;20481;-85
2022/05/14 01:54:12;;;;;;;3.50;3.20;;;11.80;99.90;;;;;;5035454;28;20442;-84
2022/05/14 01:56:39;;;;;;;3.53;3.20;;;11.70;99.90;;;;;;5035648;28;20453;-85
2022/05/14 01:59:09;;;;;;;5.27;3.13;;;11.80;99.90;;;;;;5035300;28;20466;-85
2022/05/14 02:01:38;;;;;;;4.20;3.00;;;11.70;99.90;;;;;;5035160;28;20480;-84
2022/05/14 02:04:09;;;;;;;3.73;3.43;;;11.70;99.90;;;;;;5035510;28;20475;-85
2022/05/14 02:06:37;;;;;;;3.13;2.93;;;11.60;99.90;;;;;;5035559;28;20461;-84
2022/05/14 02:09:08;;;;;;;3.80;3.50;;;11.60;99.90;;;;;;5035297;28;20477;-84
2022/05/14 02:11:36;;;;;;;3.30;2.50;;;11.60;99.90;;;;;;5034394;28;20434;-84
2022/05/14 02:14:03;;;;;;;4.37;3.97;;;11.60;99.90;;;;;;5035062;28;20508;-86
2022/05/14 02:16:30;;;;;;;5.83;4.20;;;11.50;99.90;;;;;;5035349;28;20474;-84
2022/05/14 02:18:58;;;;;;;3.57;3.27;;;11.50;99.90;;;;;;5035136;28;20453;-84
2022/05/14 02:21:26;;;;;;;3.37;2.90;;;11.50;99.90;;;;;;5032409;28;20429;-86
2022/05/14 02:23:53;;;;;;;5.83;4.00;;;11.50;99.90;;;;;;5024499;28;20452;-86
2022/05/14 02:26:20;;;;;;;3.80;3.17;;;11.50;99.90;;;;;;5022955;28;20951;-87
2022/05/14 02:28:47;;;;;;;3.33;3.00;;;11.50;99.90;;;;;;5022785;28;20933;-87
2022/05/14 02:31:14;;;;;;;3.97;3.70;;;11.40;99.90;;;;;;5022082;28;20533;-87
2022/05/14 02:33:41;;;;;;;3.97;3.67;;;11.40;99.90;;;;;;5020909;28;20464;-87
2022/05/14 02:36:10;;;;;;;3.87;3.57;;;11.40;99.90;;;;;;5019922;28;20989;-87
2022/05/14 02:38:38;;;;;;;4.33;3.80;;;11.40;99.90;;;;;;5020642;28;20441;-87
2022/05/14 02:41:05;;;;;;;3.47;3.17;;;11.30;99.90;;;;;;5021818;28;20927;-87
2022/05/14 02:43:33;;;;;;;3.03;2.70;;;11.30;99.90;;;;;;5022046;28;20492;-88
2022/05/14 02:46:00;;;;;;;4.27;3.50;;;11.30;99.90;;;;;;5022293;28;20465;-87
2022/05/14 02:48:27;;;;;;;4.37;3.93;;;11.20;99.90;;;;;;5021680;28;20487;-87
2022/05/14 02:50:54;;;;;;;4.60;4.10;;;11.20;99.90;;;;;;5028811;28;20524;-86
2022/05/14 02:53:22;;;;;;;4.20;3.90;;;11.20;99.90;;;;;;5030923;28;20491;-87
2022/05/14 02:55:49;;;;;;;3.43;3.23;;;11.10;99.90;;;;;;5027316;28;20949;-87
2022/05/14 02:59:06;;;;;;;4.57;3.13;;;11.10;99.90;;;;;;5025325;28;20441;-87
2022/05/14 03:01:03;;;;;;;4.33;3.93;;;11.10;99.90;;;;;;5025104;28;20447;-87
2022/05/14 03:03:30;;;;;;;3.40;3.17;;;11.10;99.90;;;;;;5025745;28;20459;-87
2022/05/14 03:05:57;;;;;;;3.53;3.27;;;11.10;99.90;;;;;;5025696;28;20460;-87
2022/05/14 03:08:25;;;;;;;4.07;3.77;;;11.10;99.90;;;;;;5025304;28;20495;-87
2022/05/14 03:10:52;;;;;;;4.40;4.00;;;11.00;99.90;;;;;;5025238;28;20524;-87
2022/05/14 03:13:19;;;;;;;4.67;4.20;;;11.00;99.90;;;;;;5025225;28;20465;-87
2022/05/14 03:15:46;;;;;;;4.53;4.13;;;10.90;99.90;;;;;;5024789;28;20955;-87
2022/05/14 03:18:13;;;;;;;3.87;3.57;;;11.00;99.90;;;;;;5025581;28;20492;-88
2022/05/14 03:20:40;;;;;;;6.10;5.00;;;11.00;99.90;;;;;;5024664;28;20485;-87
2022/05/14 03:23:07;;;;;;;4.40;4.00;;;10.90;99.90;;;;;;5024142;28;20484;-87
2022/05/14 03:25:35;;;;;;;3.00;2.80;;;10.90;99.90;;;;;;5025115;28;20481;-87
2022/05/14 03:28:02;;;;;;;4.40;4.10;;;10.90;99.90;;;;;;5025559;28;20464;-87
2022/05/14 03:30:29;;;;;;;4.60;4.20;;;10.90;99.90;;;;;;5024804;28;21064;-87
2022/05/14 03:32:56;;;;;;;5.17;4.03;;;10.90;99.90;;;;;;5025137;28;20539;-87
2022/05/14 03:35:23;;;;;;;4.30;3.90;;;10.80;99.90;;;;;;5024257;28;20469;-87
2022/05/14 03:37:50;;;;;;;4.50;4.10;;;10.90;99.90;;;;;;5025655;28;20457;-87
2022/05/14 03:40:17;;;;;;;4.00;3.70;;;10.80;99.90;;;;;;5024391;28;20465;-87
2022/05/14 03:42:45;;;;;;;4.20;3.90;;;10.80;99.90;;;;;;5024524;28;20524;-87
2022/05/14 03:45:12;;;;;;;4.00;3.60;;;10.70;99.90;;;;;;5025531;28;20963;-87
2022/05/14 03:47:39;;;;;;;4.43;4.07;;;10.80;99.90;;;;;;5024859;28;20464;-87
2022/05/14 03:50:06;;;;;;;4.30;3.90;;;10.80;99.90;;;;;;5024438;28;20494;-87
2022/05/14 03:52:33;;;;;;;3.60;3.33;;;10.70;99.90;;;;;;5025128;28;20788;-87
2022/05/14 03:55:00;;;;;;;3.90;3.47;;;10.80;99.90;;;;;;5025508;28;20441;-87
2022/05/14 03:57:27;;;;;;;5.30;3.60;;;10.70;99.90;;;;;;5025964;28;20456;-87
2022/05/14 03:59:58;;;;;;;4.47;4.10;;;10.70;99.90;;;;;;5024933;28;20479;-87
2022/05/14 04:02:28;;;;;;;4.70;4.30;;;10.70;99.90;;;;;;5023856;28;20540;-87
2022/05/14 04:04:55;;;;;;;4.13;3.00;;;10.70;99.90;;;;;;5024667;28;20499;-87
2022/05/14 04:07:23;;;;;;;3.10;2.90;;;10.70;99.90;;;;;;5025045;28;20525;-87
2022/05/14 04:09:50;;;;;;;6.03;3.43;;;10.70;99.90;;;;;;5024766;28;20571;-88
2022/05/14 04:12:17;;;;;;;4.17;3.87;;;10.70;99.90;;;;;;5024763;28;21017;-87
2022/05/14 04:14:44;;;;;;;3.40;3.10;;;10.70;99.90;;;;;;5024549;28;20507;-88
2022/05/14 04:17:15;;;;;;;4.90;4.50;;;10.80;99.90;;;;;;5024176;28;20496;-87
2022/05/14 04:19:42;;;;;;;3.97;3.60;;;10.70;99.90;;;;;;5024013;28;20476;-87
2022/05/14 04:22:09;;;;;;;3.43;3.23;;;10.80;99.90;;;;;;5023164;28;20898;-87
2022/05/14 04:24:36;;;;;;;3.30;3.00;;;10.80;99.90;;;;;;5024270;28;20465;-87
2022/05/14 04:27:03;;;;;;;4.18;3.80;;;10.80;99.90;;;;;;5024547;28;20454;-87
2022/05/14 04:29:30;;;;;;;5.60;3.70;;;10.80;99.90;;;;;;5024194;28;20233;-87
2022/05/14 04:31:57;;;;;;;5.00;3.97;;;10.80;99.90;;;;;;5023836;28;20519;-88
2022/05/14 04:34:25;;;;;;;8.93;4.37;;;10.90;99.90;;;;;;5023221;28;20474;-87
2022/05/14 04:36:56;;;;;;;3.87;3.57;;;10.90;99.90;;;;;;5023047;28;20586;-87
2022/05/14 04:39:31;;;;;;;6.63;4.50;;;10.90;99.90;;;;;;5022875;28;20569;-87
2022/05/14 04:42:00;;;;;;;4.50;4.10;;;10.90;99.90;;;;;;5022671;28;20558;-87
2022/05/14 04:44:27;;;;;;;4.80;3.93;;;11.00;99.90;;;;;;5022874;28;20455;-87
2022/05/14 04:46:54;;;;;;;3.73;3.43;;;11.00;99.90;;;;;;5022409;28;20464;-87
2022/05/14 04:49:22;;;;;;;4.57;4.17;;;11.00;99.90;;;;;;5022505;28;20501;-88
2022/05/14 04:51:50;;;;;;;4.00;3.63;;;11.10;99.90;;;;;;5022558;28;20543;-88
2022/05/14 04:54:20;;;;;;;4.73;4.33;;;11.10;99.90;;;;;;5023435;28;20441;-87
2022/05/14 04:56:55;;;;;;;5.30;4.80;;;11.10;99.90;;;;;;5022945;28;20437;-87
2022/05/14 04:59:24;;;;;;;6.30;4.60;;;11.20;99.90;;;;;;5023565;28;20451;-87
2022/05/14 05:04:41;;;;;;;5.13;4.27;;;11.20;99.90;;;;;;5022451;28;20464;-87
2022/05/14 05:07:10;;;;;;;4.80;4.27;;;11.30;99.90;;;;;;5021893;28;20449;-88
2022/05/14 05:09:37;;;;;;;3.97;3.47;;;11.40;99.90;;;;;;5021803;28;20501;-87
2022/05/14 05:12:05;;;;;;;3.93;3.57;;;11.40;99.90;;;;;;5021883;28;20544;-87
2022/05/14 05:14:32;;;;;;;3.87;3.20;;;11.40;99.90;;;;;;5020939;28;20471;-87
2022/05/14 05:16:59;;;;;;;4.60;3.33;;;11.40;99.90;;;;;;5022372;28;20528;-87
2022/05/14 05:19:26;;;;;;;4.57;3.67;;;11.60;99.90;;;;;;5022343;28;20547;-87
2022/05/14 05:21:53;;;;;;;3.30;3.03;;;11.80;99.90;;;;;;5022398;28;20518;-88
2022/05/14 05:24:22;;;;;;;5.27;3.60;;;11.70;99.90;;;;;;5021147;28;20467;-87
2022/05/14 05:26:50;;;;;;;3.50;3.20;;;11.90;99.90;;;;;;5021376;28;20467;-86
2022/05/14 05:29:18;;;;;;;3.47;2.93;;;12.00;99.90;;;;;;5021337;28;20512;-86
2022/05/14 05:31:48;;;;;;;3.37;3.07;;;12.00;99.90;;;;;;5021458;28;20482;-87
2022/05/14 05:34:15;;;;;;;2.87;2.67;;;12.10;99.90;;;;;;5020600;28;20441;-87
2022/05/14 05:36:42;;;;;;;3.30;3.10;;;12.20;99.90;;;;;;5021499;28;20476;-87
2022/05/14 05:39:10;;;;;;;3.60;3.10;;;12.20;99.90;;;;;;5023081;28;20516;-88
2022/05/14 05:41:39;;;;;;;3.50;3.20;;;12.30;99.90;;;;;;5021027;28;20473;-87
2022/05/14 05:44:08;;;;;;;2.70;2.57;;;12.50;99.90;;;;;;5021510;28;20815;-86
2022/05/14 05:46:55;;;;;;;7.27;3.63;;;12.60;99.90;;;;;;5022103;28;20453;-85
2022/05/14 05:49:22;;;;;;;4.67;4.23;;;12.70;99.90;;;;;;5021238;28;20480;-86
2022/05/14 05:51:49;;;;;;;3.00;2.80;;;12.80;99.90;;;;;;5020016;28;20486;-86
2022/05/14 05:57:04;;;;;;;3.43;3.13;;;13.00;99.90;;;;;;4986429;28;20426;-87
2022/05/14 05:59:34;;;;;;;8.83;2.43;;;13.00;99.90;;;;;;5019697;28;20545;-87
2022/05/14 06:02:01;;;;;;;5.80;2.97;;;13.00;99.90;;;;;;5019757;28;20446;-87
2022/05/14 06:04:28;;;;;;;3.70;3.40;;;13.10;99.90;;;;;;5019731;28;20450;-88
2022/05/14 06:06:54;;;;;;;2.83;2.23;;;13.10;99.90;;;;;;5019720;28;20458;-88
2022/05/14 06:09:24;;;;;;;4.23;3.03;;;13.30;99.90;;;;;;5020995;28;20497;-86
2022/05/14 06:11:53;;;;;;;6.57;3.00;;;13.40;99.90;;;;;;5020479;28;20501;-86
2022/05/14 06:14:21;;;;;;;3.50;2.87;;;13.50;99.90;;;;;;5020089;28;20485;-86
2022/05/14 06:16:52;;;;;;;4.00;3.07;;;13.60;99.90;;;;;;5019988;28;20545;-86
2022/05/14 06:19:19;;;;;;;2.90;2.57;;;13.70;99.90;;;;;;5018709;28;20482;-87
2022/05/14 06:21:46;;;;;;;2.73;2.53;;;13.80;99.90;;;;;;5018592;28;20461;-87
2022/05/14 06:24:13;;;;;;;2.73;2.30;;;13.90;99.90;;;;;;5018633;28;20465;-87
2022/05/14 06:26:40;;;;;;;3.33;3.13;;;14.10;99.90;;;;;;5021474;28;20461;-87
2022/05/14 06:29:07;;;;;;;2.37;2.00;;;14.10;99.90;;;;;;5022630;28;20494;-87
2022/05/14 06:31:36;;;;;;;3.37;2.90;;;14.20;99.90;;;;;;5021829;28;20585;-87
2022/05/14 06:34:03;;;;;;;3.97;3.67;;;14.30;99.90;;;;;;5022971;28;20481;-87
2022/05/14 06:36:30;;;;;;;7.33;2.60;;;14.40;99.90;;;;;;5023137;28;20462;-87
2022/05/14 06:38:57;;;;;;;5.13;2.57;;;14.50;99.90;;;;;;5022510;28;20536;-88
2022/05/14 06:41:24;;;;;;;2.73;2.50;;;14.70;99.90;;;;;;5021894;28;20451;-86
2022/05/14 06:43:52;;;;;;;2.27;2.07;;;14.80;99.90;;;;;;5022079;28;20453;-86
2022/05/14 06:46:19;;;;;;;2.33;1.57;;;15.00;99.90;;;;;;5022152;28;20975;-87
2022/05/14 06:48:48;;;;;;;2.17;1.97;;;15.00;99.90;;;;;;5022589;28;20472;-87
2022/05/14 06:51:20;;;;;;;2.00;1.43;;;15.00;99.90;;;;;;5021687;28;20483;-86
2022/05/14 06:53:48;;;;;;;3.67;1.77;;;15.10;99.00;;;;;;5021912;28;20542;-87
2022/05/14 06:56:15;;;;;;;1.93;1.30;;;15.20;99.00;;;;;;5021719;28;20809;-86
2022/05/14 06:58:48;;;;;;;1.57;1.43;;;15.40;98.90;;;;;;5022474;28;20465;-88
2022/05/14 07:01:18;;;;;;;1.87;1.77;;;15.40;99.50;;;;;;5023823;28;21016;-88
2022/05/14 07:06:40;;;;;;;3.13;2.30;;;15.70;98.40;;;;;;5022705;28;20449;-85
2022/05/14 07:09:12;;;;;;;2.27;2.13;;;15.80;98.40;;;;;;5022848;28;20482;-85
2022/05/14 07:11:41;;;;;;;2.87;2.33;;;15.90;98.60;;;;;;5022021;28;20512;-87
2022/05/14 07:14:09;;;;;;;1.70;1.60;;;16.10;97.60;;;;;;5021652;28;20994;-87
2022/05/14 07:16:37;;;;;;;3.67;1.93;;;16.10;96.50;;;;;;5021976;28;20455;-86
2022/05/14 07:19:06;;;;;;;1.80;1.70;;;16.10;96.60;;;;;;5021432;28;20479;-86
2022/05/14 07:21:36;;;;;;;2.70;1.70;;;16.10;97.10;;;;;;5021239;28;20450;-86
2022/05/14 07:24:04;;;;;;;2.10;1.23;;;16.20;97.30;;;;;;5021265;28;20549;-86
2022/05/14 07:26:31;;;;;;;2.00;1.40;;;16.30;96.40;;;;;;5021453;28;20534;-86
2022/05/14 07:29:00;;;;;;;2.37;1.33;;;16.40;96.10;;;;;;5021298;28;20474;-86
2022/05/14 07:31:27;;;;;;;1.27;1.23;;;16.40;96.30;;;;;;5020619;28;20483;-86
2022/05/14 07:34:47;;;;;;;1.57;1.47;;;16.60;94.30;;;;;;5022332;28;20498;-86
2022/05/14 07:37:27;;;;;;;1.60;1.50;;;16.70;94.10;;;;;;5016842;28;20456;-86
2022/05/14 07:40:21;;;;;;;1.47;1.37;;;16.80;94.10;;;;;;5022965;28;20486;-86
2022/05/14 07:49:00;;;;;;;2.57;1.67;;;17.10;91.60;;;;;;5019781;28;20478;-87
2022/05/14 07:54:56;;;;;;;1.60;1.20;;;17.30;92.70;;;;;;5015258;28;20452;-86
2022/05/14 07:57:52;;;;;;;1.57;1.30;;;17.40;92.50;;;;;;5023250;28;20440;-86
2022/05/14 08:01:01;;;;;;;2.53;1.20;;;17.40;93.00;;;;;;4988105;28;20483;-86
2022/05/14 08:04:02;;;;;;;1.83;1.40;;;17.40;92.20;;;;;;5022613;28;20552;-87
2022/05/14 08:07:05;;;;;;;1.10;0.90;;;17.60;91.30;;;;;;5020356;28;20521;-86
2022/05/14 08:09:32;;;;;;;1.73;1.63;;;17.80;92.00;;;;;;5058958;22;20497;-81
2022/05/14 08:12:00;;;;;;;1.43;1.33;;;17.80;92.60;;;;;;5058362;28;20502;-82
2022/05/14 08:14:28;;;;;;;1.33;1.17;;;18.00;92.70;;;;;;5058095;28;20447;-82
2022/05/14 08:16:55;;;;;;;1.80;1.00;;;18.20;93.30;;;;;;5058522;28;20513;-82
2022/05/14 08:19:22;;;;;;;1.83;1.60;;;18.20;93.90;;;;;;5058187;28;20558;-81
2022/05/14 08:24:34;;;;;;;1.63;1.53;;;18.50;92.00;;;;;;5057850;28;20438;-82
2022/05/14 08:27:05;;;;;;;1.43;1.33;;;18.60;91.40;;;;;;5057364;28;20447;-82
2022/05/14 08:29:33;;;;;;;2.30;1.40;;;18.70;91.20;;;;;;5057446;28;20478;-81
2022/05/14 08:32:00;;;;;;;3.40;2.00;;;18.80;90.60;;;;;;5056610;28;20564;-81
2022/05/14 08:34:27;;;;;;;1.70;1.53;;;18.80;90.20;;;;;;5058354;28;20916;-81
2022/05/14 08:36:54;;;;;;;1.20;1.10;;;18.80;90.30;;;;;;5059304;28;20815;-80
2022/05/14 08:39:21;;;;;;;3.40;0.97;;;18.60;91.10;;;;;;5058738;28;20482;-81
2022/05/14 08:41:50;;;;;;;4.63;1.60;;;18.50;87.90;;;;;;5059024;28;20461;-82
2022/05/14 08:44:21;;;;;;;1.60;1.50;;;18.50;89.40;;;;;;5058187;28;20447;-81
2022/05/14 08:46:54;;;;;;;2.00;1.90;;;18.60;90.50;;;;;;5057462;28;20537;-82
2022/05/14 08:49:28;;;;;;;2.60;1.60;;;18.80;88.90;;;;;;5056198;28;21743;-81
2022/05/14 08:51:56;;;;;;;6.83;1.97;;;18.90;87.70;;;;;;5059119;28;20488;-81
2022/05/14 08:54:23;;;;;;;1.33;1.23;;;18.90;89.00;;;;;;5057751;28;20457;-80
2022/05/14 08:57:00;;;;;;;1.77;1.67;;;19.00;90.40;;;;;;5057667;28;20451;-81
2022/05/14 08:59:51;;;;;;;2.20;1.63;;;19.10;89.80;;;;;;5058786;28;20520;-82
2022/05/14 09:02:21;;;;;;;2.57;1.50;;;19.30;85.90;;;;;;5057907;28;20453;-82
2022/05/14 09:04:50;;;;;;;1.70;1.60;;;19.30;90.20;;;;;;5058484;28;20458;-83
2022/05/14 09:07:17;;;;;;;1.80;1.30;;;19.30;87.00;;;;;;5058405;28;20498;-82
2022/05/14 09:09:50;;;;;;;2.00;1.60;;;19.40;87.30;;;;;;5057712;28;20503;-83
2022/05/14 09:12:19;;;;;;;4.67;1.47;;;19.40;87.60;;;;;;5058057;28;20492;-82
2022/05/14 09:14:54;;;;;;;2.10;1.73;;;19.40;87.60;;;;;;5057535;28;20447;-83
2022/05/14 09:17:23;;;;;;;1.80;1.70;;;19.50;89.10;;;;;;5059136;28;20443;-81
2022/05/14 09:19:52;;;;;;;2.13;1.60;;;19.70;87.90;;;;;;5058804;28;20476;-83
2022/05/14 09:22:28;;;;;;;2.73;1.93;;;19.80;87.70;;;;;;5059054;28;20465;-82
2022/05/14 09:25:02;;;;;;;5.17;1.70;;;19.80;86.60;;;;;;5056473;28;20941;-81
2022/05/14 09:27:34;;;;;;;1.87;1.63;;;19.90;86.70;;;;;;5057169;28;20459;-81
2022/05/14 09:30:06;;;;;;;2.10;1.90;;;20.00;88.00;;;;;;5056089;28;20503;-80
2022/05/14 09:32:36;;;;;;;1.57;1.47;;;20.10;86.20;;;;;;5056679;28;20476;-82
2022/05/14 09:35:09;;;;;;;1.40;1.30;;;20.20;86.90;;;;;;5057609;28;20486;-83
2022/05/14 09:37:36;;;;;;;1.33;1.23;;;20.20;84.10;;;;;;5058702;28;20964;-83
2022/05/14 09:40:09;;;;;;;1.53;1.40;;;20.20;85.30;;;;;;5058333;28;20479;-83
2022/05/14 09:42:41;;;;;;;1.67;1.40;;;20.20;83.20;;;;;;5058251;28;20449;-81
2022/05/14 09:45:23;;;;;;;2.33;2.23;;;20.40;86.60;;;;;;5058261;28;20483;-83
2022/05/14 09:47:50;;;;;;;1.90;1.50;;;20.40;83.10;;;;;;5058425;28;20452;-83
2022/05/14 09:50:20;;;;;;;4.93;2.80;;;20.50;84.30;;;;;;5058406;28;20481;-83
2022/05/14 09:52:56;;;;;;;3.13;1.77;;;20.60;84.20;;;;;;5057954;28;20485;-83
2022/05/14 09:55:26;;;;;;;2.40;1.80;;;20.90;81.70;;;;;;5058396;28;20543;-83
2022/05/14 09:57:56;;;;;;;2.27;1.30;;;21.00;84.60;;;;;;5058163;28;20464;-84
2022/05/14 10:00:30;;;;;;;2.30;2.10;;;20.90;83.30;;;;;;5057588;28;20476;-83
2022/05/14 10:03:07;;;;;;;1.47;1.37;;;20.80;83.80;;;;;;5058140;28;20452;-83
2022/05/14 10:06:01;;;;;;;4.87;1.97;;;20.80;80.80;;;;;;5057065;28;20456;-81
2022/05/14 10:08:44;;;;;;;1.87;1.77;;;21.00;84.00;;;;;;5039836;28;20464;-83
2022/05/14 10:11:17;;;;;;;1.90;1.50;;;20.90;82.20;;;;;;5058710;28;20481;-83
2022/05/14 10:13:50;;;;;;;1.50;1.40;;;21.00;81.50;;;;;;5058395;28;20449;-83
2022/05/14 10:16:24;;;;;;;1.73;1.50;;;21.10;82.10;;;;;;5057559;28;20445;-84
2022/05/14 10:19:13;;;;;;;4.17;1.80;;;21.40;80.40;;;;;;5056665;28;20447;-83
2022/05/14 10:21:50;;;;;;;2.83;1.80;;;21.70;81.40;;;;;;5058102;28;20450;-84
2022/05/14 10:27:29;;;;;;;1.97;1.60;;;21.70;77.90;;;;;;5058245;28;20411;-84
2022/05/14 10:30:02;;;;;;;1.77;1.67;;;22.00;80.60;;;;;;5057509;28;20480;-84
2022/05/14 10:32:33;;;;;;;3.53;2.33;;;22.30;74.80;;;;;;5056623;28;20495;-83
2022/05/14 10:35:05;;;;;;;1.93;1.83;;;22.30;71.60;;;;;;5055895;28;20470;-82
2022/05/14 10:37:35;;;;;;;2.17;2.07;;;22.40;74.10;;;;;;5056502;28;20452;-82
2022/05/14 10:40:11;;;;;;;1.93;1.63;;;22.50;70.70;;;;;;5055559;28;20560;-83
2022/05/14 10:42:47;;;;;;;1.90;1.80;;;22.60;67.40;;;;;;5055721;28;20973;-83
2022/05/14 10:45:18;;;;;;;2.30;0.90;;;22.30;67.90;;;;;;5055472;28;20963;-83
2022/05/14 10:47:55;;;;;;;1.53;1.43;;;22.20;66.60;;;;;;5055387;28;20462;-83
2022/05/14 10:50:22;;;;;;;1.93;1.83;;;22.20;67.70;;;;;;5055220;28;20487;-82
2022/05/14 10:52:52;;;;;;;1.40;1.30;;;22.00;69.20;;;;;;5056802;28;20492;-82
2022/05/14 10:55:23;;;;;;;2.20;1.33;;;22.40;66.00;;;;;;5057910;28;20891;-82
2022/05/14 10:57:56;;;;;;;2.50;1.30;;;22.60;68.30;;;;;;5057951;28;20866;-82
2022/05/14 11:00:38;;;;;;;1.67;1.57;;;22.60;64.10;;;;;;5055245;28;20479;-82
2022/05/14 11:03:14;;;;;;;2.60;1.40;;;23.00;66.90;;;;;;5056512;28;20459;-83
2022/05/14 11:05:54;;;;;;;1.10;1.10;;;23.60;62.00;;;;;;5056965;28;20451;-82
2022/05/14 11:08:33;;;;;;;3.17;1.80;;;24.30;60.00;;;;;;5056095;28;20463;-83
2022/05/14 11:11:11;;;;;;;1.40;1.30;;;24.90;57.60;;;;;;5054459;28;20816;-81
2022/05/14 11:13:38;;;;;;;2.60;1.30;;;25.40;57.50;;;;;;5078311;28;20454;-82
2022/05/14 11:16:07;;;;;;;2.60;1.87;;;26.00;57.50;;;;;;5079364;28;20474;-81
2022/05/14 11:18:47;;;;;;;1.20;1.10;;;26.70;57.90;;;;;;5060135;28;20450;-82
2022/05/14 11:21:15;;;;;;;3.10;1.60;;;27.30;54.40;;;;;;5058354;28;20452;-81
2022/05/14 11:23:49;;;;;;;2.03;1.83;;;27.90;56.80;;;;;;5058968;28;20451;-82
2022/05/14 11:26:18;;;;;;;2.57;2.37;;;28.40;54.70;;;;;;5057900;28;20462;-83
2022/05/14 11:28:54;;;;;;;1.80;1.70;;;29.00;56.20;;;;;;5059141;28;20459;-83
2022/05/14 11:31:25;;;;;;;1.40;1.30;;;28.60;51.90;;;;;;5058727;28;20449;-84
2022/05/14 11:33:55;;;;;;;3.57;1.50;;;28.00;54.40;;;;;;5059298;28;20450;-84
2022/05/14 11:36:26;;;;;;;3.47;1.70;;;27.90;53.90;;;;;;5060237;28;20450;-84
2022/05/14 11:39:10;;;;;;;1.80;1.70;;;27.80;52.00;;;;;;5059826;28;20457;-83
2022/05/14 11:41:38;;;;;;;3.10;1.87;;;27.50;52.30;;;;;;5059179;28;20905;-84
2022/05/14 11:44:06;;;;;;;1.80;1.50;;;27.50;53.90;;;;;;5058736;28;20451;-84
2022/05/14 11:46:41;;;;;;;2.37;1.80;;;27.50;52.30;;;;;;5057522;28;20943;-83
2022/05/14 11:49:21;;;;;;;4.30;1.80;;;28.10;53.90;;;;;;5057768;28;20840;-84
2022/05/14 11:51:59;;;;;;;2.00;1.90;;;28.70;51.90;;;;;;5058668;28;20473;-83
2022/05/14 11:54:31;;;;;;;1.70;1.60;;;28.20;50.40;;;;;;5058996;28;20457;-84
2022/05/14 11:57:03;;;;;;;1.63;1.53;;;28.10;51.40;;;;;;5059591;28;20458;-83
2022/05/14 11:59:40;;;;;;;1.77;1.67;;;28.50;49.50;;;;;;5058233;28;20514;-84
2022/05/14 12:02:13;;;;;;;1.83;1.63;;;28.50;48.20;;;;;;5056421;28;20560;-82
2022/05/14 12:04:45;;;;;;;2.40;1.37;;;28.70;47.80;;;;;;5055713;28;20816;-83
2022/05/14 12:07:49;;;;;;;2.73;1.73;;;29.00;47.70;;;;;;5058464;28;20463;-84
2022/05/14 12:10:26;;;;;;;1.73;1.63;;;29.40;48.40;;;;;;5057845;28;20546;-84
2022/05/14 12:13:00;;;;;;;1.57;1.47;;;30.00;47.60;;;;;;5058883;28;20783;-84
2022/05/14 12:15:29;;;;;;;1.87;1.77;;;30.30;46.50;;;;;;5058780;28;20462;-84
2022/05/14 12:17:59;;;;;;;3.47;1.83;;;30.80;46.00;;;;;;5059817;28;20836;-84
2022/05/14 12:20:29;;;;;;;1.93;1.20;;;31.10;45.60;;;;;;5058486;28;20511;-83
2022/05/14 12:22:59;;;;;;;2.87;1.83;;;31.30;44.30;;;;;;5059738;28;20487;-84
2022/05/14 12:25:37;;;;;;;2.97;1.67;;;31.40;45.80;;;;;;5061717;28;20501;-84
2022/05/14 12:28:16;;;;;;;2.30;1.80;;;31.20;44.20;;;;;;5057802;28;20461;-84
2022/05/14 12:33:38;;;;;;;2.40;1.53;;;32.00;46.50;;;;;;5056983;28;20474;-83
2022/05/14 12:36:11;;;;;;;3.10;2.00;;;32.70;45.80;;;;;;5055303;28;20521;-84
2022/05/14 12:38:42;;;;;;;1.53;1.43;;;33.60;46.80;;;;;;5055578;28;20455;-84
2022/05/14 12:41:20;;;;;;;1.70;1.60;;;34.30;44.20;;;;;;5057858;28;20448;-84
2022/05/14 12:43:47;;;;;;;2.07;1.40;;;34.60;41.20;;;;;;5057951;28;20488;-83
2022/05/14 12:46:13;;;;;;;2.93;1.67;;;34.80;42.00;;;;;;5058708;28;20452;-83
2022/05/14 12:48:44;;;;;;;1.50;1.37;;;34.70;40.40;;;;;;5058346;28;20458;-83
2022/05/14 12:51:17;;;;;;;2.47;1.80;;;34.40;39.50;;;;;;5059432;28;20812;-83
2022/05/14 12:53:44;;;;;;;4.40;2.03;;;33.90;40.20;;;;;;5057685;28;20855;-83
2022/05/14 12:56:11;;;;;;;1.80;1.67;;;33.20;40.50;;;;;;5057071;28;20448;-83
2022/05/14 12:58:40;;;;;;;1.60;1.50;;;32.80;40.40;;;;;;5056112;28;20458;-83
2022/05/14 13:01:09;;;;;;;2.13;1.47;;;32.40;40.70;;;;;;5056700;28;20445;-83
2022/05/14 13:03:39;;;;;;;2.07;1.97;;;32.50;42.10;;;;;;5057424;28;21022;-83
2022/05/14 13:06:09;;;;;;;3.40;1.57;;;32.60;42.20;;;;;;5056266;28;20451;-83
2022/05/14 13:08:43;;;;;;;3.63;1.60;;;32.80;42.60;;;;;;5057604;28;20446;-83
2022/05/14 13:11:15;;;;;;;1.80;1.70;;;33.40;42.30;;;;;;5056917;28;20453;-83
2022/05/14 13:13:45;;;;;;;1.43;1.30;;;33.20;40.30;;;;;;5057426;28;20929;-83
2022/05/14 13:16:13;;;;;;;2.10;1.73;;;33.60;39.40;;;;;;5056115;28;20459;-83
2022/05/14 13:18:44;;;;;;;2.97;1.70;;;34.00;39.10;;;;;;5057202;28;20451;-83
2022/05/14 13:21:19;;;;;;;1.53;1.30;;;34.30;40.50;;;;;;5056659;28;20450;-83
2022/05/14 13:23:59;;;;;;;2.40;1.53;;;33.30;39.30;;;;;;5054336;28;21007;-83
2022/05/14 13:26:42;;;;;;;2.87;2.20;;;33.60;40.40;;;;;;5056711;28;20462;-84
2022/05/14 13:29:16;;;;;;;2.00;1.50;;;33.50;39.10;;;;;;5055493;28;20471;-83
2022/05/14 13:31:43;;;;;;;1.97;1.77;;;33.70;39.40;;;;;;5056475;28;20451;-83
2022/05/14 13:37:11;;;;;;;2.10;1.90;;;34.10;38.80;;;;;;5060644;28;20462;-83
2022/05/14 13:39:43;;;;;;;1.30;1.20;;;33.80;37.90;;;;;;5056641;28;20900;-84
2022/05/14 13:42:21;;;;;;;3.10;1.57;;;33.80;38.60;;;;;;5057308;28;20465;-84